Time;durP1;ratioP1;P1;durP2;ratioP2;P2;SDS_P1;SDS_P2;PMS_P1;PMS_P2;Temp;Humidity;BMP_temperature;BMP_pressure;BME280_temperature;BME280_humidity;BME280_pressure;Samples;Min_cycle;Max_cycle;Signal;HPM_P1;HPM_P2
2022/10/20 00:00:59;;;;;;;;;;;12.40;99.90;;;;;;5028816;28;19933;-56
2022/10/20 00:03:27;;;;;;;;;;;12.40;99.90;;;;;;5004513;28;19932;-57
2022/10/20 00:06:04;;;;;;;;;;;12.40;99.90;;;;;;5007838;28;19930;-57
2022/10/20 00:08:32;;;;;;;;;;;12.40;99.90;;;;;;4991330;28;20391;-57
2022/10/20 00:10:59;;;;;;;;;;;12.10;99.90;;;;;;4988236;28;20305;-57
2022/10/20 00:13:27;;;;;;;;;;;12.40;99.90;;;;;;5066520;28;19929;-57
2022/10/20 00:15:54;;;;;;;;;;;12.40;99.90;;;;;;5022851;28;20340;-57
2022/10/20 00:18:22;;;;;;;;;;;12.40;99.90;;;;;;5013699;28;19932;-57
2022/10/20 00:20:50;;;;;;;;;;;12.50;99.90;;;;;;4979400;28;19933;-56
2022/10/20 00:23:18;;;;;;;;;;;12.40;99.90;;;;;;4978552;28;19932;-57
2022/10/20 00:25:45;;;;;;;;;;;12.50;99.90;;;;;;4976581;28;19926;-57
2022/10/20 00:28:13;;;;;;;;;;;12.50;99.90;;;;;;4997043;28;19929;-57
2022/10/20 00:30:40;;;;;;;;;;;12.50;99.90;;;;;;5069937;28;19947;-56
2022/10/20 00:33:08;;;;;;;;;;;12.40;99.90;;;;;;5051913;28;19925;-56
2022/10/20 00:35:37;;;;;;;;;;;12.40;99.90;;;;;;5067491;28;20295;-56
2022/10/20 00:38:05;;;;;;;;;;;12.40;99.90;;;;;;4976067;28;20295;-57
2022/10/20 00:40:32;;;;;;;;;;;12.40;99.90;;;;;;5069627;28;19955;-56
2022/10/20 00:42:59;;;;;;;;;;;12.40;99.90;;;;;;5069192;28;19924;-56
2022/10/20 00:45:27;;;;;;;;;;;12.40;99.90;;;;;;4983876;28;20289;-59
2022/10/20 00:47:56;;;;;;;;;;;12.40;99.90;;;;;;4979209;28;19926;-56
2022/10/20 00:50:29;;;;;;;;;;;12.50;99.90;;;;;;4953127;28;19937;-56
2022/10/20 00:52:58;;;;;;;;;;;12.40;99.90;;;;;;4992617;28;19930;-56
2022/10/20 00:55:27;;;;;;;;;;;12.50;99.90;;;;;;5069390;28;19955;-57
2022/10/20 00:57:55;;;;;;;;;;;12.50;99.90;;;;;;5020039;28;19924;-57
2022/10/20 01:00:23;;;;;;;;;;;12.50;99.90;;;;;;5039351;28;20454;-56
2022/10/20 01:02:52;;;;;;;;;;;12.40;99.90;;;;;;5032324;28;19933;-57
2022/10/20 01:05:20;;;;;;;;;;;12.50;99.90;;;;;;5066003;28;20414;-57
2022/10/20 01:07:47;;;;;;;;;;;12.50;99.90;;;;;;4982053;28;20313;-57
2022/10/20 01:10:15;;;;;;;;;;;12.50;99.90;;;;;;5036471;28;20400;-57
2022/10/20 01:12:48;;;;;;;;;;;12.50;99.90;;;;;;4952832;28;19979;-56
2022/10/20 01:15:24;;;;;;;;;;;12.50;99.90;;;;;;4971859;28;19933;-56
2022/10/20 01:18:03;;;;;;;;;;;12.50;99.90;;;;;;4963134;28;19926;-56
2022/10/20 01:20:44;;;;;;;;;;;12.50;99.90;;;;;;5036278;28;20652;-56
2022/10/20 01:23:17;;;;;;;;;;;12.50;99.90;;;;;;4978400;28;19930;-56
2022/10/20 01:25:45;;;;;;;;;;;12.50;99.90;;;;;;4972157;28;19929;-56
2022/10/20 01:28:12;;;;;;;;;;;12.50;99.90;;;;;;5008436;28;19943;-56
2022/10/20 01:30:43;;;;;;;;;;;12.50;99.90;;;;;;4993132;28;20432;-56
2022/10/20 01:33:11;;;;;;;;;;;12.50;99.90;;;;;;4969658;28;20289;-56
2022/10/20 01:36:01;;;;;;;;;;;12.60;99.90;;;;;;4979498;28;19927;-55
2022/10/20 01:38:28;;;;;;;;;;;12.60;99.90;;;;;;5009602;28;19924;-57
2022/10/20 01:41:00;;;;;;;;;;;12.60;99.90;;;;;;5024980;28;19926;-56
2022/10/20 01:43:30;;;;;;;;;;;12.60;99.90;;;;;;5012539;28;19933;-57
2022/10/20 01:45:58;;;;;;;;;;;12.60;99.90;;;;;;4982356;28;19926;-56
2022/10/20 01:48:30;;;;;;;;;;;12.60;99.90;;;;;;4980663;28;20293;-57
2022/10/20 01:50:58;;;;;;;;;;;12.60;99.90;;;;;;4979753;28;19926;-56
2022/10/20 01:53:25;;;;;;;;;;;12.60;99.90;;;;;;4974833;28;19926;-56
2022/10/20 01:55:53;;;;;;;;;;;12.60;99.90;;;;;;4974047;28;19926;-56
2022/10/20 01:58:27;;;;;;;;;;;12.60;99.90;;;;;;4973778;28;19925;-56
2022/10/20 02:00:58;;;;;;;;;;;12.60;99.90;;;;;;5059654;28;19935;-55
2022/10/20 02:03:25;;;;;;;;;;;12.60;99.90;;;;;;5025226;28;19926;-55
2022/10/20 02:06:11;;;;;;;;;;;12.60;99.90;;;;;;4992897;28;19931;-56
2022/10/20 02:08:44;;;;;;;;;;;12.60;99.90;;;;;;4970119;28;19930;-56
2022/10/20 02:11:34;;;;;;;;;;;12.60;99.90;;;;;;4970086;28;19926;-55
2022/10/20 02:14:03;;;;;;;;;;;12.60;99.90;;;;;;4969293;28;20316;-55
2022/10/20 02:16:32;;;;;;;;;;;12.60;99.90;;;;;;4969933;28;19933;-56
2022/10/20 02:19:00;;;;;;;;;;;12.60;99.90;;;;;;4970055;28;19926;-56
2022/10/20 02:21:28;;;;;;;;;;;12.60;99.90;;;;;;4970146;28;19933;-56
2022/10/20 02:23:59;;;;;;;;;;;12.70;99.90;;;;;;5036478;28;19929;-55
2022/10/20 02:26:26;;;;;;;;;;;12.70;99.90;;;;;;4971048;28;20389;-57
2022/10/20 02:28:57;;;;;;;;;;;12.70;99.90;;;;;;4998223;28;19933;-55
2022/10/20 02:31:24;;;;;;;;;;;12.70;99.90;;;;;;5022718;28;20408;-57
2022/10/20 02:33:53;;;;;;;;;;;12.70;99.90;;;;;;4965848;28;19925;-56
2022/10/20 02:36:23;;;;;;;;;;;12.70;99.90;;;;;;5042575;28;19933;-56
2022/10/20 02:38:51;;;;;;;;;;;12.60;99.90;;;;;;4988449;28;19937;-56
2022/10/20 02:41:18;;;;;;;;;;;12.70;99.90;;;;;;4981960;28;19933;-54
2022/10/20 02:43:45;;;;;;;;;;;12.70;99.90;;;;;;4973169;28;19933;-55
2022/10/20 02:46:13;;;;;;;;;;;12.60;99.90;;;;;;4972214;28;19960;-56
2022/10/20 02:48:45;;;;;;;;;;;12.60;99.90;;;;;;4969339;28;19945;-55
2022/10/20 02:51:12;;;;;;;;;;;12.60;99.90;;;;;;4971788;28;19926;-56
2022/10/20 02:53:40;;;;;;;;;;;12.60;99.90;;;;;;4974516;28;19926;-56
2022/10/20 02:56:07;;;;;;;;;;;12.60;99.90;;;;;;4962975;28;20266;-56
2022/10/20 02:58:35;;;;;;;;;;;12.60;99.90;;;;;;4986002;28;19926;-56
2022/10/20 03:01:02;;;;;;;;;;;12.50;99.90;;;;;;5036603;28;19933;-57
2022/10/20 03:03:30;;;;;;;;;;;12.50;99.90;;;;;;4974293;28;20404;-57
2022/10/20 03:05:57;;;;;;;;;;;12.50;99.90;;;;;;4994431;28;20305;-57
2022/10/20 03:08:24;;;;;;;;;;;12.50;99.90;;;;;;4959479;28;19930;-57
2022/10/20 03:10:52;;;;;;;;;;;12.50;99.90;;;;;;5041951;28;20308;-57
2022/10/20 03:13:19;;;;;;;;;;;12.40;99.90;;;;;;4972921;28;19949;-57
2022/10/20 03:15:47;;;;;;;;;;;12.50;99.90;;;;;;4974382;28;20423;-57
2022/10/20 03:18:14;;;;;;;;;;;12.40;99.90;;;;;;4989974;28;19937;-57
2022/10/20 03:20:42;;;;;;;;;;;12.40;99.90;;;;;;5054679;28;19941;-57
2022/10/20 03:23:10;;;;;;;;;;;12.40;99.90;;;;;;4992195;28;19945;-57
2022/10/20 03:25:40;;;;;;;;;;;12.40;99.90;;;;;;4983377;28;19926;-56
2022/10/20 03:28:07;;;;;;;;;;;12.40;99.90;;;;;;4975558;28;19926;-56
2022/10/20 03:30:35;;;;;;;;;;;12.40;99.90;;;;;;4976347;28;19926;-57
2022/10/20 03:33:02;;;;;;;;;;;12.40;99.90;;;;;;4979767;28;19926;-57
2022/10/20 03:35:29;;;;;;;;;;;12.40;99.90;;;;;;4972962;28;19930;-57
2022/10/20 03:37:57;;;;;;;;;;;12.50;99.90;;;;;;4974751;28;19933;-57
2022/10/20 03:40:24;;;;;;;;;;;12.40;99.90;;;;;;4971850;28;19926;-57
2022/10/20 03:42:52;;;;;;;;;;;12.40;99.90;;;;;;5047315;28;19944;-57
2022/10/20 03:45:19;;;;;;;;;;;12.50;99.90;;;;;;4990542;28;19932;-57
2022/10/20 03:47:46;;;;;;;;;;;12.50;99.90;;;;;;4981705;28;20399;-57
2022/10/20 03:50:14;;;;;;;;;;;12.50;99.90;;;;;;4970093;28;19937;-57
2022/10/20 03:52:41;;;;;;;;;;;12.50;99.90;;;;;;4980518;28;19930;-56
2022/10/20 03:55:09;;;;;;;;;;;12.50;99.90;;;;;;4985795;28;19996;-57
2022/10/20 03:57:36;;;;;;;;;;;12.50;99.90;;;;;;4973264;28;20281;-57
2022/10/20 04:00:04;;;;;;;;;;;12.50;99.90;;;;;;4972067;28;19930;-57
2022/10/20 04:02:39;;;;;;;;;;;12.50;99.90;;;;;;4971568;28;20473;-57
2022/10/20 04:05:07;;;;;;;;;;;12.50;99.90;;;;;;4989751;28;20388;-57
2022/10/20 04:07:35;;;;;;;;;;;12.50;99.90;;;;;;4971806;28;20320;-57
2022/10/20 04:10:02;;;;;;;;;;;12.50;99.90;;;;;;4972018;28;19926;-56
2022/10/20 04:12:30;;;;;;;;;;;12.50;99.90;;;;;;4971825;28;20289;-57
2022/10/20 04:14:57;;;;;;;;;;;12.50;99.90;;;;;;4966760;28;19933;-57
2022/10/20 04:17:24;;;;;;;;;;;12.50;99.90;;;;;;4969777;28;20344;-57
2022/10/20 04:19:52;;;;;;;;;;;12.50;99.90;;;;;;4971654;28;19926;-57
2022/10/20 04:22:19;;;;;;;;;;;12.50;99.90;;;;;;4971232;28;19927;-57
2022/10/20 04:24:47;;;;;;;;;;;12.50;99.90;;;;;;4971672;28;19927;-57
2022/10/20 04:27:14;;;;;;;;;;;12.50;99.90;;;;;;4971675;28;19941;-57
2022/10/20 04:29:41;;;;;;;;;;;12.50;99.90;;;;;;4971615;28;19926;-57
2022/10/20 04:32:09;;;;;;;;;;;12.50;99.90;;;;;;4971816;28;19933;-57
2022/10/20 04:34:36;;;;;;;;;;;12.50;99.90;;;;;;4971613;28;19926;-57
2022/10/20 04:37:07;;;;;;;;;;;12.60;99.90;;;;;;4971587;28;19926;-57
2022/10/20 04:39:40;;;;;;;;;;;12.60;99.90;;;;;;4971687;28;19941;-57
2022/10/20 04:42:07;;;;;;;;;;;12.60;99.90;;;;;;4971793;28;19926;-57
2022/10/20 04:44:35;;;;;;;;;;;12.60;99.90;;;;;;4971432;28;19930;-57
2022/10/20 04:47:02;;;;;;;;;;;12.60;99.90;;;;;;4969490;28;19934;-57
2022/10/20 04:49:30;;;;;;;;;;;12.60;99.90;;;;;;4973112;28;19933;-57
2022/10/20 04:51:57;;;;;;;;;;;12.60;99.90;;;;;;5032298;28;19934;-57
2022/10/20 04:54:28;;;;;;;;;;;12.60;99.90;;;;;;5016547;28;19932;-58
2022/10/20 04:56:55;;;;;;;;;;;12.60;99.90;;;;;;4978541;28;19942;-57
2022/10/20 04:59:23;;;;;;;;;;;12.60;99.90;;;;;;4986773;28;20546;-57
2022/10/20 05:01:50;;;;;;;;;;;12.60;99.90;;;;;;4962054;28;19934;-58
2022/10/20 05:04:20;;;;;;;;;;;12.60;99.90;;;;;;4956467;28;20009;-57
2022/10/20 05:06:48;;;;;;;;;;;12.60;99.90;;;;;;4980602;28;19926;-57
2022/10/20 05:09:16;;;;;;;;;;;12.60;99.90;;;;;;5058468;28;19935;-57
2022/10/20 05:11:43;;;;;;;;;;;12.60;99.90;;;;;;4978068;28;20387;-57
2022/10/20 05:14:11;;;;;;;;;;;12.60;99.90;;;;;;5043936;28;19930;-57
2022/10/20 05:16:38;;;;;;;;;;;12.70;99.90;;;;;;4976649;28;19926;-57
2022/10/20 05:19:06;;;;;;;;;;;12.60;99.90;;;;;;5050262;28;20303;-58
2022/10/20 05:21:34;;;;;;;;;;;12.70;99.90;;;;;;4987971;28;19937;-58
2022/10/20 05:24:02;;;;;;;;;;;12.70;99.90;;;;;;4991482;28;20400;-60
2022/10/20 05:26:33;;;;;;;;;;;12.70;99.90;;;;;;4956977;28;19926;-57
2022/10/20 05:29:02;;;;;;;;;;;12.60;99.90;;;;;;4983768;28;19926;-57
2022/10/20 05:31:30;;;;;;;;;;;12.70;99.90;;;;;;4964576;28;19934;-57
2022/10/20 05:33:57;;;;;;;;;;;12.70;99.90;;;;;;5044496;28;19924;-58
2022/10/20 05:36:25;;;;;;;;;;;12.70;99.90;;;;;;4962940;28;19927;-58
2022/10/20 05:38:53;;;;;;;;;;;12.70;99.90;;;;;;4969110;28;19945;-57
2022/10/20 05:41:22;;;;;;;;;;;12.70;99.90;;;;;;4962945;28;20407;-57
2022/10/20 05:43:51;;;;;;;;;;;12.70;99.90;;;;;;4955140;28;20404;-57
2022/10/20 05:46:19;;;;;;;;;;;12.70;99.90;;;;;;4965144;28;19933;-57
2022/10/20 05:48:46;;;;;;;;;;;12.70;99.90;;;;;;4975671;28;19933;-57
2022/10/20 05:51:15;;;;;;;;;;;12.70;99.90;;;;;;4968355;28;19961;-57
2022/10/20 05:53:43;;;;;;;;;;;12.70;99.90;;;;;;5029191;28;20380;-57
2022/10/20 05:56:11;;;;;;;;;;;12.70;99.90;;;;;;4962623;28;19928;-57
2022/10/20 05:58:39;;;;;;;;;;;12.70;99.90;;;;;;5026662;28;20402;-56
2022/10/20 06:01:15;;;;;;;;;;;12.70;99.90;;;;;;4967288;28;19927;-57
2022/10/20 06:03:49;;;;;;;;;;;12.70;99.90;;;;;;4964565;28;19927;-57
2022/10/20 06:06:17;;;;;;;;;;;12.70;99.90;;;;;;5046749;28;19936;-57
2022/10/20 06:08:45;;;;;;;;;;;12.70;99.90;;;;;;5047172;28;19932;-57
2022/10/20 06:11:13;;;;;;;;;;;12.70;99.90;;;;;;5065318;28;20291;-57
2022/10/20 06:13:41;;;;;;;;;;;12.70;99.90;;;;;;5004207;28;19934;-58
2022/10/20 06:16:12;;;;;;;;;;;12.70;99.90;;;;;;4963154;28;19945;-57
2022/10/20 06:18:42;;;;;;;;;;;12.70;99.90;;;;;;4972935;28;19949;-57
2022/10/20 06:21:14;;;;;;;;;;;12.70;99.90;;;;;;5012664;28;19926;-57
2022/10/20 06:23:42;;;;;;;;;;;12.70;99.90;;;;;;4959289;28;20400;-57
2022/10/20 06:26:11;;;;;;;;;;;12.70;99.90;;;;;;4981442;28;19938;-57
2022/10/20 06:28:39;;;;;;;;;;;12.70;99.90;;;;;;4974069;28;19937;-57
2022/10/20 06:31:14;;;;;;;;;;;12.70;99.90;;;;;;4966815;28;19930;-57
2022/10/20 06:33:42;;;;;;;;;;;12.70;99.90;;;;;;4953609;28;19930;-57
2022/10/20 06:36:10;;;;;;;;;;;12.70;99.90;;;;;;4968451;28;19937;-57
2022/10/20 06:38:38;;;;;;;;;;;12.70;99.90;;;;;;5007726;28;19933;-56
2022/10/20 06:41:08;;;;;;;;;;;12.70;99.90;;;;;;4951262;28;19926;-56
2022/10/20 06:43:35;;;;;;;;;;;12.70;99.90;;;;;;4989236;28;19927;-57
2022/10/20 06:46:04;;;;;;;;;;;12.70;99.90;;;;;;4954134;28;20296;-57
2022/10/20 06:48:32;;;;;;;;;;;12.70;99.90;;;;;;4948941;28;19926;-57
2022/10/20 06:51:03;;;;;;;;;;;12.70;99.90;;;;;;4948529;28;19934;-57
2022/10/20 06:53:30;;;;;;;;;;;12.70;99.90;;;;;;5015873;28;19941;-57
2022/10/20 06:55:58;;;;;;;;;;;12.70;99.90;;;;;;5014776;28;19960;-57
2022/10/20 06:58:26;;;;;;;;;;;12.70;99.90;;;;;;5017060;28;19932;-57
2022/10/20 07:01:16;;;;;;;;;;;12.70;99.90;;;;;;5064646;28;19932;-57
2022/10/20 07:03:44;;;;;;;;;;;12.70;99.90;;;;;;4971873;28;19926;-57
2022/10/20 07:06:15;;;;;;;;;;;12.60;99.90;;;;;;4945787;28;19927;-58
2022/10/20 07:08:43;;;;;;;;;;;12.60;99.90;;;;;;5031859;28;19932;-58
2022/10/20 07:11:15;;;;;;;;;;;12.60;99.90;;;;;;5014352;28;19926;-58
2022/10/20 07:13:43;;;;;;;;;;;12.60;99.90;;;;;;5005561;28;19926;-57
2022/10/20 07:16:12;;;;;;;;;;;12.60;99.90;;;;;;5027945;28;19926;-57
2022/10/20 07:18:40;;;;;;;;;;;12.60;99.90;;;;;;5035576;28;19924;-57
2022/10/20 07:21:08;;;;;;;;;;;12.60;99.90;;;;;;4995326;28;20523;-57
2022/10/20 07:23:36;;;;;;;;;;;12.60;99.90;;;;;;4994330;28;20409;-58
2022/10/20 07:26:09;;;;;;;;;;;12.60;99.90;;;;;;4951712;28;19969;-58
2022/10/20 07:28:38;;;;;;;;;;;12.60;99.90;;;;;;5014589;28;19930;-58
2022/10/20 07:31:07;;;;;;;;;;;12.60;99.90;;;;;;4994284;28;19930;-58
2022/10/20 07:33:35;;;;;;;;;;;12.60;99.90;;;;;;5027247;28;19936;-57
2022/10/20 07:36:09;;;;;;;;;;;12.70;99.90;;;;;;4984520;28;19926;-58
2022/10/20 07:38:37;;;;;;;;;;;12.70;99.90;;;;;;5059642;28;19937;-58
2022/10/20 07:41:04;;;;;;;;;;;12.60;99.90;;;;;;4984087;28;19933;-58
2022/10/20 07:43:32;;;;;;;;;;;12.60;99.90;;;;;;5032385;28;19937;-58
2022/10/20 07:45:59;;;;;;;;;;;12.60;99.90;;;;;;4973592;28;19926;-58
2022/10/20 07:48:27;;;;;;;;;;;12.60;99.90;;;;;;4985773;28;19956;-58
2022/10/20 07:51:11;;;;;;;;;;;12.70;99.90;;;;;;5051912;28;20329;-57
2022/10/20 07:53:44;;;;;;;;;;;12.70;99.90;;;;;;5014466;28;19933;-57
2022/10/20 07:56:11;;;;;;;;;;;12.70;99.90;;;;;;4962837;28;19926;-58
2022/10/20 07:58:39;;;;;;;;;;;12.70;99.90;;;;;;4973927;28;19937;-58
2022/10/20 08:01:06;;;;;;;;;;;12.70;99.90;;;;;;5017807;28;19926;-58
2022/10/20 08:03:34;;;;;;;;;;;12.80;99.90;;;;;;4998793;28;19966;-58
2022/10/20 08:06:02;;;;;;;;;;;12.80;99.90;;;;;;4980756;28;19941;-58
2022/10/20 08:08:30;;;;;;;;;;;12.80;99.90;;;;;;5031808;28;19927;-57
2022/10/20 08:10:58;;;;;;;;;;;12.80;99.90;;;;;;4953632;28;20721;-57
2022/10/20 08:13:26;;;;;;;;;;;12.80;99.90;;;;;;4982702;28;19929;-58
2022/10/20 08:15:54;;;;;;;;;;;12.80;99.90;;;;;;4975090;28;20408;-57
2022/10/20 08:18:35;;;;;;;;;;;12.90;99.90;;;;;;4964870;28;19930;-57
2022/10/20 08:21:18;;;;;;;;;;;12.90;99.90;;;;;;4968751;28;20412;-58
2022/10/20 08:23:46;;;;;;;;;;;12.90;99.90;;;;;;5029129;28;19937;-58
2022/10/20 08:26:21;;;;;;;;;;;12.90;99.90;;;;;;4968510;28;19927;-57
2022/10/20 08:28:49;;;;;;;;;;;12.90;99.90;;;;;;5027355;28;19925;-58
2022/10/20 08:31:16;;;;;;;;;;;12.90;99.90;;;;;;5037144;28;19930;-57
2022/10/20 08:33:44;;;;;;;;;;;12.90;99.90;;;;;;4998444;28;19926;-57
2022/10/20 08:36:18;;;;;;;;;;;12.90;99.90;;;;;;4970521;28;19927;-57
2022/10/20 08:38:46;;;;;;;;;;;13.00;99.90;;;;;;4977592;28;19933;-58
2022/10/20 08:41:21;;;;;;;;;;;13.00;99.90;;;;;;4946273;28;20289;-58
2022/10/20 08:43:50;;;;;;;;;;;13.00;99.90;;;;;;4999233;28;19933;-58
2022/10/20 08:46:18;;;;;;;;;;;13.00;99.90;;;;;;4957624;28;20292;-58
2022/10/20 08:48:46;;;;;;;;;;;13.00;99.90;;;;;;4957278;28;19926;-59
2022/10/20 08:51:16;;;;;;;;;;;13.00;99.90;;;;;;5060676;28;19926;-58
2022/10/20 08:53:46;;;;;;;;;;;13.10;99.90;;;;;;5038505;28;20520;-58
2022/10/20 08:56:14;;;;;;;;;;;13.10;99.90;;;;;;4959438;28;19933;-58
2022/10/20 08:58:43;;;;;;;;;;;13.10;99.90;;;;;;5026677;28;19929;-58
2022/10/20 09:01:33;;;;;;;;;;;13.10;99.90;;;;;;5014084;28;20416;-58
2022/10/20 09:04:20;;;;;;;;;;;13.10;99.90;;;;;;4977046;28;19933;-58
2022/10/20 09:06:50;;;;;;;;;;;13.10;99.90;;;;;;4958135;28;19930;-58
2022/10/20 09:09:19;;;;;;;;;;;13.10;99.90;;;;;;5038413;28;20406;-58
2022/10/20 09:11:47;;;;;;;;;;;13.10;99.90;;;;;;4945535;28;19931;-62
2022/10/20 09:14:15;;;;;;;;;;;13.10;99.90;;;;;;5062638;28;19924;-58
2022/10/20 09:16:45;;;;;;;;;;;13.20;99.90;;;;;;5031983;28;19953;-58
2022/10/20 09:19:26;;;;;;;;;;;13.20;99.90;;;;;;5060565;28;19948;-58
2022/10/20 09:21:56;;;;;;;;;;;13.20;99.90;;;;;;5065475;28;19924;-58
2022/10/20 09:24:26;;;;;;;;;;;13.20;99.90;;;;;;5004621;28;19934;-58
2022/10/20 09:26:53;;;;;;;;;;;13.20;99.90;;;;;;4945412;29;19937;-57
2022/10/20 09:29:36;;;;;;;;;;;13.20;99.90;;;;;;5005854;28;19925;-58
2022/10/20 09:32:16;;;;;;;;;;;13.20;99.90;;;;;;5047674;28;19929;-58
2022/10/20 09:35:21;;;;;;;;;;;13.20;99.90;;;;;;5017142;28;19949;-58
2022/10/20 09:37:55;;;;;;;;;;;13.30;99.90;;;;;;4990983;28;19925;-58
2022/10/20 09:40:25;;;;;;;;;;;13.30;99.90;;;;;;5012515;28;19930;-58
2022/10/20 09:42:54;;;;;;;;;;;13.30;99.90;;;;;;5004123;28;20307;-58
2022/10/20 09:45:27;;;;;;;;;;;13.30;99.90;;;;;;5041208;28;19936;-58
2022/10/20 09:48:15;;;;;;;;;;;13.40;99.90;;;;;;4976748;28;19927;-58
2022/10/20 09:50:46;;;;;;;;;;;13.40;99.90;;;;;;4962077;28;19927;-58
2022/10/20 09:53:18;;;;;;;;;;;13.40;99.90;;;;;;5019039;28;19929;-58
2022/10/20 09:55:47;;;;;;;;;;;13.50;99.90;;;;;;5019048;28;20221;-58
2022/10/20 09:58:26;;;;;;;;;;;13.50;99.90;;;;;;4997136;28;20489;-58
2022/10/20 10:00:55;;;;;;;;;;;13.50;99.90;;;;;;5065077;28;19924;-58
2022/10/20 10:03:23;;;;;;;;;;;13.60;99.90;;;;;;5037400;28;19948;-58
2022/10/20 10:05:51;;;;;;;;;;;13.60;99.90;;;;;;5031736;28;19933;-57
2022/10/20 10:08:19;;;;;;;;;;;13.60;99.90;;;;;;5020694;28;19929;-58
2022/10/20 10:10:57;;;;;;;;;;;13.60;99.90;;;;;;5005851;28;20404;-58
2022/10/20 10:13:26;;;;;;;;;;;13.60;99.90;;;;;;5025556;28;19935;-58
2022/10/20 10:16:03;;;;;;;;;;;13.70;99.90;;;;;;5013029;28;19933;-58
2022/10/20 10:18:31;;;;;;;;;;;13.70;99.90;;;;;;5010977;28;20419;-58
2022/10/20 10:21:03;;;;;;;;;;;13.70;99.90;;;;;;4982480;28;19933;-58
2022/10/20 10:23:32;;;;;;;;;;;13.70;99.90;;;;;;4985021;28;19937;-58
2022/10/20 10:26:00;;;;;;;;;;;13.70;99.90;;;;;;4945743;28;19933;-58
2022/10/20 10:28:34;;;;;;;;;;;13.70;99.90;;;;;;4988803;28;20365;-58
2022/10/20 10:31:19;;;;;;;;;;;13.70;99.90;;;;;;4954198;28;20300;-57
2022/10/20 10:33:48;;;;;;;;;;;13.70;99.90;;;;;;5041121;28;19936;-58
2022/10/20 10:36:25;;;;;;;;;;;13.70;99.90;;;;;;5009876;28;19927;-57
2022/10/20 10:38:52;;;;;;;;;;;13.70;99.90;;;;;;4969351;28;19926;-57
2022/10/20 10:41:20;;;;;;;;;;;13.70;99.90;;;;;;4963379;28;20284;-57
2022/10/20 10:43:56;;;;;;;;;;;13.80;99.90;;;;;;4961895;28;19934;-57
2022/10/20 10:46:26;;;;;;;;;;;13.80;99.90;;;;;;4962263;28;20445;-57
2022/10/20 10:48:56;;;;;;;;;;;13.80;99.90;;;;;;4992581;28;19926;-57
2022/10/20 10:51:24;;;;;;;;;;;13.80;99.90;;;;;;5029568;28;19930;-57
2022/10/20 10:53:58;;;;;;;;;;;13.80;99.90;;;;;;5046287;28;19951;-58
2022/10/20 10:56:31;;;;;;;;;;;13.80;99.90;;;;;;4975864;28;19938;-57
2022/10/20 10:59:02;;;;;;;;;;;13.80;99.90;;;;;;5021530;28;19930;-57
2022/10/20 11:01:48;;;;;;;;;;;13.80;99.90;;;;;;5042525;28;19965;-57
2022/10/20 11:04:19;;;;;;;;;;;13.80;99.90;;;;;;5033678;28;19949;-58
2022/10/20 11:06:49;;;;;;;;;;;13.80;99.90;;;;;;5053351;28;19933;-58
2022/10/20 11:09:26;;;;;;;;;;;13.80;99.90;;;;;;5059513;28;19924;-58
2022/10/20 11:11:56;;;;;;;;;;;13.90;99.90;;;;;;5002655;28;20270;-58
2022/10/20 11:14:32;;;;;;;;;;;13.80;99.90;;;;;;5026469;28;19927;-58
2022/10/20 11:17:03;;;;;;;;;;;13.90;99.90;;;;;;5012903;28;19927;-58
2022/10/20 11:19:37;;;;;;;;;;;13.90;99.90;;;;;;5030424;28;19926;-58
2022/10/20 11:22:23;;;;;;;;;;;13.80;99.90;;;;;;4967170;28;19926;-57
2022/10/20 11:24:56;;;;;;;;;;;13.90;99.90;;;;;;4966287;28;19930;-58
2022/10/20 11:27:25;;;;;;;;;;;13.80;99.90;;;;;;5048868;28;19933;-58
2022/10/20 11:29:56;;;;;;;;;;;13.80;99.90;;;;;;5056463;28;19925;-57
2022/10/20 11:32:25;;;;;;;;;;;13.90;99.90;;;;;;4995809;28;19947;-57
2022/10/20 11:34:56;;;;;;;;;;;13.80;99.90;;;;;;5068442;28;19928;-57
2022/10/20 11:37:29;;;;;;;;;;;13.80;99.90;;;;;;5067562;28;19924;-57
2022/10/20 11:40:02;;;;;;;;;;;13.80;99.90;;;;;;4985934;28;19925;-57
2022/10/20 11:42:48;;;;;;;;;;;13.80;99.90;;;;;;5064984;28;20351;-57
2022/10/20 11:45:22;;;;;;;;;;;13.80;99.90;;;;;;4996005;28;20424;-57
2022/10/20 11:47:56;;;;;;;;;;;13.80;99.90;;;;;;5060469;28;19925;-58
2022/10/20 11:50:24;;;;;;;;;;;13.70;99.90;;;;;;5054159;28;19945;-57
2022/10/20 11:52:54;;;;;;;;;;;13.70;99.90;;;;;;5010376;28;20368;-57
2022/10/20 11:55:31;;;;;;;;;;;13.70;99.90;;;;;;5023479;28;19926;-58
2022/10/20 11:58:17;;;;;;;;;;;13.70;99.90;;;;;;4994308;28;20386;-57
2022/10/20 12:00:48;;;;;;;;;;;13.70;99.90;;;;;;4952731;28;19927;-57
2022/10/20 12:03:15;;;;;;;;;;;13.70;99.90;;;;;;5013444;28;19933;-58
2022/10/20 12:05:52;;;;;;;;;;;13.70;99.90;;;;;;5038741;28;19930;-59
2022/10/20 12:08:46;;;;;;;;;;;13.70;99.90;;;;;;5025846;28;19926;-58
2022/10/20 12:11:24;;;;;;;;;;;13.60;99.90;;;;;;4966670;28;19930;-59
2022/10/20 12:13:54;;;;;;;;;;;13.60;99.90;;;;;;4966370;28;19933;-58
2022/10/20 12:16:41;;;;;;;;;;;13.60;99.90;;;;;;4960853;28;19926;-59
2022/10/20 12:19:16;;;;;;;;;;;13.60;99.90;;;;;;5022479;28;19931;-58
2022/10/20 12:21:52;;;;;;;;;;;13.60;99.90;;;;;;4965908;28;19933;-59
2022/10/20 12:24:30;;;;;;;;;;;13.60;99.90;;;;;;5063775;28;20335;-59
2022/10/20 12:27:01;;;;;;;;;;;13.60;99.90;;;;;;4994509;28;20000;-58
2022/10/20 12:29:31;;;;;;;;;;;13.70;99.90;;;;;;4999510;28;19941;-58
2022/10/20 12:32:19;;;;;;;;;;;13.70;99.90;;;;;;4946387;28;19926;-58
2022/10/20 12:34:48;;;;;;;;;;;13.70;99.90;;;;;;5034196;28;19930;-58
2022/10/20 12:37:24;;;;;;;;;;;13.70;99.90;;;;;;5051011;28;20415;-58
2022/10/20 12:39:52;;;;;;;;;;;13.80;99.90;;;;;;4951238;28;19926;-58
2022/10/20 12:42:22;;;;;;;;;;;13.80;99.90;;;;;;4971134;28;20104;-58
2022/10/20 12:44:49;;;;;;;;;;;13.80;99.90;;;;;;5030392;28;19930;-58
2022/10/20 12:47:18;;;;;;;;;;;13.80;99.90;;;;;;4964747;28;19930;-58
2022/10/20 12:49:46;;;;;;;;;;;;;;;;;;5048341;28;19949;-57
2022/10/20 12:52:18;;;;;;;;;;;13.80;99.90;;;;;;4986557;28;20436;-57
2022/10/20 12:54:46;;;;;;;;;;;13.80;99.90;;;;;;5048986;28;20323;-57
2022/10/20 12:57:35;;;;;;;;;;;13.80;99.90;;;;;;5011413;28;20301;-57
2022/10/20 13:00:06;;;;;;;;;;;13.80;99.90;;;;;;4965803;28;19926;-58
2022/10/20 13:02:42;;;;;;;;;;;13.80;99.90;;;;;;4971858;28;20375;-58
2022/10/20 13:05:13;;;;;;;;;;;13.80;99.90;;;;;;4976453;28;19937;-58
2022/10/20 13:07:46;;;;;;;;;;;13.80;99.90;;;;;;5030556;28;20289;-57
2022/10/20 13:10:23;;;;;;;;;;;13.80;99.90;;;;;;5000341;28;19948;-58
2022/10/20 13:12:53;;;;;;;;;;;13.80;99.90;;;;;;5046490;28;20335;-58
2022/10/20 13:15:24;;;;;;;;;;;13.90;99.90;;;;;;5033434;28;20418;-58
2022/10/20 13:17:55;;;;;;;;;;;13.90;99.90;;;;;;4972403;28;20377;-58
2022/10/20 13:20:35;;;;;;;;;;;13.90;99.90;;;;;;4964384;28;19937;-58
2022/10/20 13:23:02;;;;;;;;;;;13.90;99.90;;;;;;5005401;28;19939;-58
2022/10/20 13:25:42;;;;;;;;;;;13.90;99.90;;;;;;5040984;28;19949;-57
2022/10/20 13:28:13;;;;;;;;;;;13.90;99.90;;;;;;5025447;28;19934;-58
2022/10/20 13:30:49;;;;;;;;;;;13.90;99.90;;;;;;5030876;28;19936;-58
2022/10/20 13:33:16;;;;;;;;;;;13.90;99.90;;;;;;4993330;28;19933;-58
2022/10/20 13:36:04;;;;;;;;;;;13.90;99.90;;;;;;4962784;28;19926;-58
2022/10/20 13:38:46;;;;;;;;;;;13.90;99.90;;;;;;5015221;28;19932;-58
2022/10/20 13:41:23;;;;;;;;;;;13.90;99.90;;;;;;5064959;28;19925;-58
2022/10/20 13:44:01;;;;;;;;;;;13.90;99.90;;;;;;4962241;28;19933;-58
2022/10/20 13:46:46;;;;;;;;;;;13.90;99.90;;;;;;4953742;28;19926;-58
2022/10/20 13:49:26;;;;;;;;;;;14.00;99.90;;;;;;5040152;28;19935;-58
2022/10/20 13:51:57;;;;;;;;;;;14.00;99.90;;;;;;4986609;28;20170;-58
2022/10/20 13:54:30;;;;;;;;;;;14.00;99.90;;;;;;5044917;28;20277;-58
2022/10/20 13:56:58;;;;;;;;;;;14.00;99.90;;;;;;5040245;28;19927;-59
2022/10/20 13:59:27;;;;;;;;;;;14.00;99.90;;;;;;5034657;28;19955;-59
2022/10/20 14:01:56;;;;;;;;;;;14.10;99.90;;;;;;4962487;28;20183;-58
2022/10/20 14:04:24;;;;;;;;;;;14.00;99.90;;;;;;5061185;28;19925;-58
2022/10/20 14:06:52;;;;;;;;;;;14.00;99.90;;;;;;5065267;28;19928;-58
2022/10/20 14:09:21;;;;;;;;;;;14.00;99.90;;;;;;5011134;28;20852;-58
2022/10/20 14:11:50;;;;;;;;;;;14.00;99.90;;;;;;4964121;28;19926;-58
2022/10/20 14:14:21;;;;;;;;;;;14.00;99.90;;;;;;5056310;28;20367;-58
2022/10/20 14:16:54;;;;;;;;;;;14.00;99.90;;;;;;5019101;28;19926;-58
2022/10/20 14:19:25;;;;;;;;;;;14.10;99.90;;;;;;5045568;28;19932;-58
2022/10/20 14:21:55;;;;;;;;;;;14.10;99.90;;;;;;5002633;28;20411;-58
2022/10/20 14:24:25;;;;;;;;;;;14.10;99.90;;;;;;4986233;28;19929;-58
2022/10/20 14:26:54;;;;;;;;;;;14.00;99.90;;;;;;4956281;28;19938;-57
2022/10/20 14:29:23;;;;;;;;;;;14.10;99.90;;;;;;5048244;28;19928;-57
2022/10/20 14:31:50;;;;;;;;;;;14.10;99.90;;;;;;5021015;28;20309;-57
2022/10/20 14:34:20;;;;;;;;;;;14.10;99.90;;;;;;5039879;28;19928;-57
2022/10/20 14:36:48;;;;;;;;;;;14.10;99.90;;;;;;4986890;28;20262;-56
2022/10/20 14:39:20;;;;;;;;;;;14.20;99.90;;;;;;4985204;28;19930;-57